createdAt,value
2019-04-03T14:02:37.707Z,8.95
2019-04-03T14:05:09.762Z,8.80
2019-04-03T14:07:41.621Z,8.83
2019-04-03T14:10:11.938Z,9.05
2019-04-03T14:12:44.607Z,8.55
2019-04-03T14:15:15.089Z,9.08
2019-04-03T14:17:55.164Z,9.73
2019-04-03T14:20:16.654Z,8.58
2019-04-03T14:22:47.476Z,9.00
2019-04-03T14:25:22.214Z,8.30
2019-04-03T14:27:49.949Z,7.45
2019-04-03T14:30:20.258Z,8.43
2019-04-03T14:32:52.844Z,8.60
2019-04-03T14:35:45.938Z,7.62
2019-04-03T14:37:54.355Z,7.60
2019-04-03T14:40:24.726Z,6.70
2019-04-03T14:42:58.250Z,6.83
2019-04-03T14:45:26.680Z,7.28
2019-04-03T14:47:59.689Z,7.42
2019-04-03T14:50:30.526Z,7.03
2019-04-03T14:53:00.763Z,7.03
2019-04-03T14:55:31.159Z,6.75
2019-04-03T14:58:02.285Z,6.08
2019-04-03T15:00:33.254Z,6.53
2019-04-03T15:03:04.857Z,5.78
2019-04-03T15:05:39.297Z,5.35
2019-04-03T15:08:07.134Z,4.65
2019-04-03T15:10:37.651Z,4.70
2019-04-03T15:13:26.773Z,4.80
2019-04-03T15:16:00.407Z,4.35
2019-04-03T15:18:29.292Z,4.33
2019-04-03T15:20:59.787Z,4.60
2019-04-03T15:23:29.962Z,5.03
2019-04-03T15:26:01.056Z,5.30
2019-04-03T15:28:32.382Z,5.12
2019-04-03T15:31:03.289Z,5.70
2019-04-03T15:33:33.451Z,6.25
2019-04-03T15:36:04.731Z,6.60
2019-04-03T15:38:35.277Z,6.83
2019-04-03T15:41:05.806Z,7.37
2019-04-03T15:43:36.079Z,7.42
2019-04-03T15:46:06.564Z,7.80
2019-04-03T15:48:39.896Z,7.22
2019-04-03T15:51:09.877Z,6.50
2019-04-03T15:53:40.421Z,4.70
2019-04-03T15:56:13.005Z,2.60
2019-04-03T15:58:43.303Z,2.72
2019-04-03T16:01:13.836Z,2.50
2019-04-03T16:03:44.697Z,2.83
2019-04-03T16:06:14.448Z,2.95
2019-04-03T16:08:47.122Z,2.55
2019-04-03T16:11:17.091Z,3.35
2019-04-03T16:13:48.179Z,2.92
2019-04-03T16:16:19.458Z,3.10
2019-04-03T16:18:50.562Z,2.90
2019-04-03T16:21:22.415Z,2.72
2019-04-03T16:23:52.288Z,2.37
2019-04-03T16:26:23.883Z,3.10
2019-04-03T16:28:56.257Z,3.17
2019-04-03T16:31:26.218Z,2.30
2019-04-03T16:33:56.301Z,1.95
2019-04-03T16:36:26.793Z,1.40
2019-04-03T16:39:00.684Z,1.32
2019-04-03T16:41:30.262Z,1.75
2019-04-03T16:44:00.790Z,1.60
2019-04-03T16:46:31.235Z,2.35
2019-04-03T16:49:02.102Z,1.80
2019-04-03T16:51:33.370Z,1.60
2019-04-03T16:54:03.596Z,1.60
2019-04-03T16:56:34.025Z,1.80
2019-04-03T16:59:03.745Z,1.27
2019-04-03T17:01:33.883Z,1.27
2019-04-03T17:04:04.570Z,1.52
2019-04-03T17:06:35.229Z,2.00
2019-04-03T17:09:07.740Z,1.52
2019-04-03T17:11:38.221Z,1.70
2019-04-03T17:14:08.104Z,1.98
2019-04-03T17:16:38.357Z,1.77
2019-04-03T17:19:08.282Z,2.40
2019-04-03T17:21:39.340Z,1.10
2019-04-03T17:24:09.660Z,2.80
2019-04-03T17:26:49.746Z,2.22
2019-04-03T17:29:13.952Z,2.10
2019-04-03T17:31:44.280Z,1.87
2019-04-03T17:34:14.686Z,1.95
2019-04-03T17:36:44.871Z,2.60
2019-04-03T17:39:14.967Z,1.98
2019-04-03T17:41:45.287Z,2.55
2019-04-03T17:44:15.411Z,1.60
2019-04-03T17:46:50.030Z,2.10
2019-04-03T17:49:19.827Z,2.98
2019-04-03T17:51:50.174Z,2.08
2019-04-03T17:54:20.248Z,3.08
2019-04-03T17:56:50.643Z,2.17
2019-04-03T17:59:21.140Z,1.40
2019-04-03T18:01:52.412Z,1.40
2019-04-03T18:04:22.985Z,2.10
2019-04-03T18:06:53.756Z,1.70
2019-04-03T18:09:23.532Z,2.20
2019-04-03T18:12:12.248Z,1.65
2019-04-03T18:14:41.934Z,1.70
2019-04-03T18:17:12.466Z,1.55
2019-04-03T18:19:42.603Z,1.50
2019-04-03T18:22:13.033Z,1.70
2019-04-03T18:24:43.219Z,1.62
2019-04-03T18:27:13.886Z,2.40
2019-04-03T18:29:44.928Z,2.67
2019-04-03T18:32:15.998Z,3.00
2019-04-03T18:34:49.489Z,2.05
2019-04-03T18:37:17.779Z,1.40
2019-04-03T18:39:51.283Z,1.30
2019-04-03T18:42:21.048Z,2.17
2019-04-03T18:44:51.053Z,1.77
2019-04-03T18:47:21.145Z,1.55
2019-04-03T18:49:51.527Z,1.98
2019-04-03T18:52:21.606Z,2.92
2019-04-03T18:54:51.624Z,1.57
2019-04-03T18:57:21.975Z,1.45
2019-04-03T18:59:52.645Z,1.77
2019-04-03T19:02:22.720Z,1.35
2019-04-03T19:05:01.793Z,1.20
2019-04-03T19:07:24.591Z,1.47
2019-04-03T19:10:06.440Z,1.60
2019-04-03T19:12:35.458Z,1.80
2019-04-03T19:14:57.922Z,2.10
2019-04-03T19:17:28.338Z,2.30
2019-04-03T19:20:09.834Z,1.75
2019-04-03T19:22:30.144Z,2.00
2019-04-03T19:25:00.757Z,1.70
2019-04-03T19:27:33.011Z,3.25
2019-04-03T19:30:06.763Z,2.83
2019-04-03T19:32:35.640Z,2.65
2019-04-03T19:35:09.227Z,3.62
2019-04-03T19:37:38.488Z,2.47
2019-04-03T19:40:10.530Z,10.65
2019-04-03T19:42:41.908Z,2.87
2019-04-03T19:45:13.839Z,2.62
2019-04-03T19:47:44.502Z,2.80
2019-04-03T19:50:14.605Z,2.70
2019-04-03T19:52:45.296Z,2.20
2019-04-03T19:55:15.372Z,2.00
2019-04-03T19:57:45.293Z,2.30
